createdAt,value
2022-08-28T00:00:56.135Z,45.88
2022-08-28T00:01:59.206Z,46.04
2022-08-28T00:03:02.658Z,47.27
2022-08-28T00:04:05.058Z,47.19
2022-08-28T00:05:08.840Z,47.09
2022-08-28T00:06:11.404Z,46.59
2022-08-28T00:07:13.769Z,47.08
2022-08-28T00:08:16.543Z,48.22
2022-08-28T00:09:18.718Z,48.37
2022-08-28T00:10:23.842Z,48.94
2022-08-28T00:11:25.948Z,49.18
2022-08-28T00:12:28.198Z,49.48
2022-08-28T00:13:31.377Z,49.66
2022-08-28T00:14:33.579Z,49.80
2022-08-28T00:15:37.362Z,49.47
2022-08-28T00:16:40.696Z,49.49
2022-08-28T00:17:43.402Z,49.11
2022-08-28T00:18:45.594Z,48.48
2022-08-28T00:19:49.239Z,48.28
2022-08-28T00:20:52.468Z,47.84
2022-08-28T00:21:54.695Z,47.65
2022-08-28T00:22:58.620Z,48.29
2022-08-28T00:24:00.822Z,47.01
2022-08-28T00:25:03.577Z,47.99
2022-08-28T00:26:05.902Z,47.84
2022-08-28T00:27:08.698Z,47.05
2022-08-28T00:28:13.336Z,47.56
2022-08-28T00:29:16.484Z,47.75
2022-08-28T00:30:23.169Z,47.05
2022-08-28T00:31:25.385Z,47.41
2022-08-28T00:32:27.517Z,47.52
2022-08-28T00:33:32.928Z,47.50
2022-08-28T00:34:35.941Z,46.89
2022-08-28T00:35:38.740Z,48.02
2022-08-28T00:36:42.444Z,47.92
2022-08-28T00:37:45.663Z,47.51
2022-08-28T00:38:49.956Z,47.36
2022-08-28T00:39:52.068Z,47.22
2022-08-28T00:40:59.687Z,47.15
2022-08-28T00:42:02.303Z,46.61
2022-08-28T00:43:05.640Z,46.77
2022-08-28T00:44:16.690Z,46.95
2022-08-28T00:45:19.803Z,47.14
2022-08-28T00:46:23.424Z,47.30
2022-08-28T00:47:26.105Z,47.62
2022-08-28T00:48:28.354Z,47.60
2022-08-28T00:49:33.591Z,48.31
2022-08-28T00:50:36.587Z,47.69
2022-08-28T00:51:40.200Z,48.48
2022-08-28T00:52:45.569Z,48.37
2022-08-28T00:53:48.373Z,48.05
2022-08-28T00:55:02.434Z,48.16
2022-08-28T00:56:12.941Z,47.88
2022-08-28T00:57:27.750Z,48.57
2022-08-28T00:58:30.263Z,48.33
2022-08-28T00:59:33.146Z,48.42
2022-08-28T01:00:37.758Z,48.35
2022-08-28T01:01:41.656Z,48.75
2022-08-28T01:02:43.940Z,49.34
2022-08-28T01:03:45.994Z,49.61
2022-08-28T01:04:49.146Z,50.10
2022-08-28T01:05:52.267Z,50.36
2022-08-28T01:06:56.792Z,50.48
2022-08-28T01:07:59.106Z,49.82
2022-08-28T01:09:01.146Z,49.90
2022-08-28T01:10:06.405Z,50.27
2022-08-28T01:11:09.355Z,50.39
2022-08-28T01:12:15.564Z,50.38
2022-08-28T01:13:17.891Z,51.12
2022-08-28T01:14:21.878Z,51.22
2022-08-28T01:15:27.705Z,51.31
2022-08-28T01:16:33.745Z,51.39
2022-08-28T01:17:37.232Z,51.00
2022-08-28T01:18:43.408Z,51.02
2022-08-28T01:19:49.061Z,50.49
2022-08-28T01:21:11.994Z,50.59
2022-08-28T01:22:25.644Z,50.97
2022-08-28T01:23:40.379Z,50.32
2022-08-28T01:24:44.970Z,51.70
2022-08-28T01:25:47.180Z,52.02
2022-08-28T01:26:49.603Z,53.12
2022-08-28T01:27:51.763Z,53.28
2022-08-28T01:28:54.909Z,52.06
2022-08-28T01:29:57.035Z,52.01
2022-08-28T01:30:59.212Z,52.08
2022-08-28T01:32:01.801Z,51.29
2022-08-28T01:33:03.868Z,52.14
2022-08-28T01:34:08.424Z,52.38
2022-08-28T01:35:14.063Z,52.54
2022-08-28T01:36:18.184Z,52.89
2022-08-28T01:37:20.428Z,53.29
2022-08-28T01:38:26.966Z,53.59
2022-08-28T01:39:27.062Z,53.54
2022-08-28T01:40:32.891Z,53.22
2022-08-28T01:41:38.611Z,52.70
2022-08-28T01:42:43.229Z,52.04
2022-08-28T01:43:46.475Z,52.90
2022-08-28T01:44:48.749Z,53.06
2022-08-28T01:45:54.327Z,53.27
2022-08-28T01:46:58.305Z,53.40
2022-08-28T01:48:00.450Z,53.71
2022-08-28T01:49:03.107Z,53.48
2022-08-28T01:50:07.807Z,53.98
2022-08-28T01:51:11.656Z,54.48
2022-08-28T01:52:13.648Z,54.58
2022-08-28T01:53:17.756Z,54.59
2022-08-28T01:54:21.248Z,54.67
2022-08-28T01:55:23.300Z,54.57
2022-08-28T01:56:28.054Z,55.17
2022-08-28T01:57:30.181Z,54.96
2022-08-28T01:58:37.462Z,54.79
2022-08-28T01:59:39.028Z,55.19
2022-08-28T02:00:43.248Z,55.01
2022-08-28T02:01:45.382Z,54.85
2022-08-28T02:02:47.471Z,54.75
2022-08-28T02:03:50.326Z,54.64
2022-08-28T02:04:52.523Z,54.51
2022-08-28T02:05:54.661Z,54.34
2022-08-28T02:06:56.967Z,54.15
2022-08-28T02:08:00.689Z,54.08
2022-08-28T02:09:04.563Z,53.98
2022-08-28T02:10:08.774Z,54.18
2022-08-28T02:11:12.064Z,54.14
2022-08-28T02:12:14.183Z,54.26
2022-08-28T02:13:16.249Z,54.29
2022-08-28T02:14:19.838Z,53.97
2022-08-28T02:15:24.636Z,54.06
2022-08-28T02:16:27.534Z,54.63
2022-08-28T02:17:30.130Z,53.68
2022-08-28T02:18:32.528Z,53.89
2022-08-28T02:19:34.603Z,53.49
2022-08-28T02:20:37.014Z,53.42
2022-08-28T02:21:39.881Z,53.08
2022-08-28T02:22:41.980Z,52.90
2022-08-28T02:23:46.652Z,52.83
2022-08-28T02:24:50.204Z,52.77
2022-08-28T02:25:52.325Z,52.41
2022-08-28T02:26:54.599Z,52.31
2022-08-28T02:27:56.761Z,52.35
2022-08-28T02:28:58.803Z,52.35
2022-08-28T02:30:01.196Z,52.27
2022-08-28T02:31:05.978Z,52.31
2022-08-28T02:32:08.756Z,52.30
2022-08-28T02:33:10.805Z,52.44
2022-08-28T02:34:13.014Z,52.31
2022-08-28T02:35:18.191Z,52.48
2022-08-28T02:36:21.139Z,52.64
2022-08-28T02:37:23.297Z,52.90
2022-08-28T02:38:25.418Z,53.00
2022-08-28T02:39:27.793Z,53.00
2022-08-28T02:40:30.282Z,53.24
2022-08-28T02:41:32.717Z,53.27
2022-08-28T02:42:34.909Z,53.41
2022-08-28T02:43:37.053Z,53.32
2022-08-28T02:44:38.991Z,53.21
2022-08-28T02:45:40.954Z,53.42
2022-08-28T02:46:44.351Z,53.49
2022-08-28T02:47:47.343Z,53.51
2022-08-28T02:48:50.510Z,53.36
2022-08-28T02:49:52.627Z,53.28
2022-08-28T02:50:57.960Z,53.22
2022-08-28T02:52:00.532Z,53.18
2022-08-28T02:53:02.622Z,53.11
2022-08-28T02:54:04.962Z,53.00
2022-08-28T02:55:09.676Z,52.95
2022-08-28T02:56:13.686Z,52.94
2022-08-28T02:57:15.827Z,53.12
2022-08-28T02:58:17.907Z,53.52
2022-08-28T02:59:20.364Z,53.50
2022-08-28T03:00:25.374Z,53.59
2022-08-28T03:01:28.333Z,53.95
2022-08-28T03:02:30.518Z,54.04
2022-08-28T03:03:32.733Z,54.22
2022-08-28T03:04:37.082Z,54.63
2022-08-28T03:05:39.169Z,54.70
2022-08-28T03:06:41.338Z,54.59
2022-08-28T03:07:43.783Z,54.53
2022-08-28T03:08:46.211Z,54.79
2022-08-28T03:09:49.253Z,55.00
2022-08-28T03:10:51.795Z,55.68
2022-08-28T03:11:54.351Z,55.35
2022-08-28T03:12:56.439Z,55.36
2022-08-28T03:13:58.605Z,55.71
2022-08-28T03:15:00.699Z,56.13
2022-08-28T03:16:03.791Z,55.90
2022-08-28T03:17:07.908Z,56.38
2022-08-28T03:18:11.485Z,56.42
2022-08-28T03:19:14.272Z,56.86
2022-08-28T03:20:16.897Z,57.24
2022-08-28T03:21:18.844Z,57.69
2022-08-28T03:22:21.210Z,57.21
2022-08-28T03:23:23.549Z,56.98
2022-08-28T03:24:25.629Z,57.69
2022-08-28T03:25:27.694Z,56.89
2022-08-28T03:26:30.962Z,57.96
2022-08-28T03:27:33.192Z,57.08
2022-08-28T03:28:38.804Z,56.52
2022-08-28T03:29:41.129Z,56.53
2022-08-28T03:30:44.363Z,56.94
2022-08-28T03:31:46.550Z,57.05
2022-08-28T03:32:49.027Z,56.81
2022-08-28T03:33:52.673Z,57.32
2022-08-28T03:34:54.826Z,56.93
2022-08-28T03:35:57.652Z,56.88
2022-08-28T03:36:59.897Z,56.76
2022-08-28T03:38:01.968Z,56.68
2022-08-28T03:39:06.006Z,57.15
2022-08-28T03:40:10.263Z,57.05
2022-08-28T03:41:14.723Z,57.02
2022-08-28T03:42:17.003Z,57.15
2022-08-28T03:43:21.979Z,56.95
2022-08-28T03:44:24.069Z,56.86
2022-08-28T03:45:26.127Z,56.68
2022-08-28T03:46:31.143Z,56.52
2022-08-28T03:47:36.339Z,56.21
2022-08-28T03:48:38.697Z,56.21
2022-08-28T03:49:42.891Z,56.41
2022-08-28T03:50:47.104Z,56.58
2022-08-28T03:51:51.090Z,56.37
2022-08-28T03:52:53.048Z,56.44
2022-08-28T03:53:57.428Z,56.38
2022-08-28T03:55:00.954Z,56.19
2022-08-28T03:56:09.575Z,56.31
2022-08-28T03:57:11.666Z,56.20
2022-08-28T03:58:19.021Z,56.08
2022-08-28T03:59:18.558Z,55.72
2022-08-28T04:00:22.883Z,56.13
2022-08-28T04:01:25.956Z,56.01
2022-08-28T04:02:28.120Z,55.99
2022-08-28T04:03:30.740Z,55.91
2022-08-28T04:04:32.771Z,55.98
2022-08-28T04:05:34.848Z,55.69
2022-08-28T04:06:37.282Z,55.67
2022-08-28T04:07:40.107Z,55.95
2022-08-28T04:08:42.646Z,55.91
2022-08-28T04:09:45.696Z,55.90
2022-08-28T04:10:48.536Z,55.64
2022-08-28T04:11:50.678Z,55.84
2022-08-28T04:12:52.632Z,56.20
2022-08-28T04:13:54.597Z,55.85
2022-08-28T04:14:56.768Z,55.78
2022-08-28T04:16:02.195Z,56.11
2022-08-28T04:17:06.574Z,56.04
2022-08-28T04:18:09.940Z,56.36
2022-08-28T04:19:13.554Z,56.36
2022-08-28T04:20:16.183Z,56.07
2022-08-28T04:21:21.120Z,56.11
2022-08-28T04:22:23.622Z,56.06
2022-08-28T04:23:25.892Z,56.16
2022-08-28T04:24:27.842Z,56.00
2022-08-28T04:25:30.839Z,55.98
2022-08-28T04:26:34.733Z,55.92
2022-08-28T04:27:36.781Z,55.78
2022-08-28T04:28:38.933Z,55.98
2022-08-28T04:29:40.913Z,55.77
2022-08-28T04:30:43.189Z,55.69
2022-08-28T04:31:45.435Z,55.68
2022-08-28T04:32:48.340Z,55.56
2022-08-28T04:33:51.041Z,55.42
2022-08-28T04:34:53.204Z,55.47
2022-08-28T04:35:56.263Z,55.68
2022-08-28T04:36:59.446Z,55.72
2022-08-28T04:38:05.383Z,55.62
2022-08-28T04:39:06.548Z,55.85
2022-08-28T04:40:10.796Z,55.53
2022-08-28T04:41:15.549Z,55.30
2022-08-28T04:42:17.656Z,55.73
2022-08-28T04:43:19.727Z,55.40
2022-08-28T04:44:22.349Z,55.17
2022-08-28T04:45:24.311Z,55.22
2022-08-28T04:46:26.674Z,55.10
2022-08-28T04:47:32.446Z,55.13
2022-08-28T04:48:35.724Z,55.28
2022-08-28T04:49:38.218Z,54.98
2022-08-28T04:50:43.459Z,55.00
2022-08-28T04:51:46.841Z,54.87
2022-08-28T04:52:50.835Z,54.97
2022-08-28T04:53:54.470Z,55.03
2022-08-28T04:54:57.214Z,54.93
2022-08-28T04:55:59.961Z,54.68
2022-08-28T04:57:02.131Z,54.80
2022-08-28T04:58:06.254Z,54.67
2022-08-28T04:59:09.442Z,54.83
2022-08-28T05:00:13.012Z,54.96
2022-08-28T05:01:19.610Z,55.12
2022-08-28T05:02:21.969Z,54.86
2022-08-28T05:03:24.090Z,55.03
2022-08-28T05:04:26.073Z,55.21
2022-08-28T05:05:28.013Z,54.99
2022-08-28T05:06:32.271Z,54.89
2022-08-28T05:07:34.385Z,54.94
2022-08-28T05:08:36.924Z,55.03
2022-08-28T05:09:39.233Z,55.08
2022-08-28T05:10:42.876Z,54.63
2022-08-28T05:11:45.981Z,54.84
2022-08-28T05:12:48.179Z,54.96
2022-08-28T05:13:51.118Z,54.77
2022-08-28T05:14:55.563Z,55.12
2022-08-28T05:15:58.390Z,55.18
2022-08-28T05:17:00.513Z,54.99
2022-08-28T05:18:02.455Z,55.06
2022-08-28T05:19:04.512Z,55.03
2022-08-28T05:20:08.149Z,55.24
2022-08-28T05:22:24.924Z,55.60
2022-08-28T05:23:27.855Z,55.74
2022-08-28T05:24:30.003Z,55.84
2022-08-28T05:25:37.153Z,55.55
2022-08-28T05:26:40.478Z,55.58
2022-08-28T05:27:42.640Z,55.46
2022-08-28T05:28:45.401Z,55.77
2022-08-28T05:29:50.028Z,55.76
2022-08-28T05:30:52.650Z,55.72
2022-08-28T05:31:54.758Z,55.95
2022-08-28T05:32:56.901Z,55.64
2022-08-28T05:34:01.503Z,55.48
2022-08-28T05:35:04.945Z,55.17
2022-08-28T05:36:08.767Z,55.72
2022-08-28T05:37:11.058Z,55.73
2022-08-28T05:38:15.892Z,55.77
2022-08-28T05:39:18.061Z,55.88
2022-08-28T05:40:22.123Z,55.99
2022-08-28T05:41:27.435Z,55.66
2022-08-28T05:42:30.928Z,55.43
2022-08-28T05:43:35.246Z,55.52
2022-08-28T05:44:37.451Z,55.61
2022-08-28T05:45:39.727Z,56.09
2022-08-28T05:46:45.234Z,56.01
2022-08-28T05:47:47.725Z,55.99
2022-08-28T05:48:49.798Z,55.92
2022-08-28T05:49:52.390Z,56.04
2022-08-28T05:50:56.875Z,55.98
2022-08-28T05:51:58.850Z,55.67
2022-08-28T05:53:00.908Z,55.55
2022-08-28T05:54:03.803Z,55.52
2022-08-28T05:55:08.159Z,55.71
2022-08-28T05:56:14.580Z,55.67
2022-08-28T05:57:17.000Z,55.76
2022-08-28T05:58:19.533Z,55.52
2022-08-28T05:59:22.081Z,56.11
2022-08-28T06:00:25.335Z,56.42
2022-08-28T06:01:30.090Z,56.14
2022-08-28T06:02:32.585Z,56.19
2022-08-28T06:03:35.635Z,55.91
2022-08-28T06:04:37.846Z,55.84
2022-08-28T06:05:40.136Z,55.73
2022-08-28T06:06:42.897Z,55.46
2022-08-28T06:07:47.732Z,55.46
2022-08-28T06:08:56.225Z,55.52
2022-08-28T06:09:56.494Z,55.67
2022-08-28T06:11:00.144Z,55.70
2022-08-28T06:12:03.584Z,55.57
2022-08-28T06:13:05.700Z,55.30
2022-08-28T06:14:09.704Z,55.06
2022-08-28T06:15:11.909Z,54.84
2022-08-28T06:16:16.038Z,54.73
2022-08-28T06:17:23.464Z,54.59
2022-08-28T06:18:22.708Z,54.51
2022-08-28T06:20:29.732Z,54.02
2022-08-28T06:21:31.829Z,54.02
2022-08-28T06:22:33.804Z,53.91
2022-08-28T06:23:36.398Z,53.81
2022-08-28T06:24:39.696Z,53.71
2022-08-28T06:25:44.724Z,53.56
2022-08-28T06:26:46.935Z,53.59
2022-08-28T06:27:49.049Z,53.38
2022-08-28T06:28:52.210Z,53.24
2022-08-28T06:29:54.644Z,53.41
2022-08-28T06:31:18.397Z,53.22
2022-08-28T06:32:02.555Z,53.03
2022-08-28T06:33:06.593Z,53.14
2022-08-28T06:34:08.907Z,53.18
2022-08-28T06:35:10.998Z,53.21
2022-08-28T06:36:13.487Z,52.76
2022-08-28T06:37:16.739Z,52.77
2022-08-28T06:38:21.533Z,52.86
2022-08-28T06:39:23.733Z,52.81
2022-08-28T06:40:26.401Z,52.79
2022-08-28T06:41:29.533Z,53.08
2022-08-28T06:42:32.942Z,53.16
2022-08-28T06:43:36.097Z,52.85
2022-08-28T06:44:38.655Z,52.89
2022-08-28T06:45:42.610Z,52.88
2022-08-28T06:46:46.710Z,52.65
2022-08-28T06:47:48.859Z,52.61
2022-08-28T06:48:53.790Z,52.76
2022-08-28T06:49:56.313Z,52.68
2022-08-28T06:50:58.989Z,52.85
2022-08-28T06:52:01.061Z,52.68
2022-08-28T06:53:02.996Z,52.55
2022-08-28T06:54:06.858Z,52.54
2022-08-28T06:55:10.016Z,52.02
2022-08-28T06:56:26.127Z,51.86
2022-08-28T06:57:21.307Z,51.88
2022-08-28T06:58:23.968Z,52.01
2022-08-28T06:59:26.061Z,51.98
2022-08-28T07:00:28.811Z,51.99
2022-08-28T07:01:34.165Z,51.83
2022-08-28T07:02:36.291Z,51.74
2022-08-28T07:03:44.451Z,51.66
2022-08-28T07:04:44.674Z,51.65
2022-08-28T07:05:46.806Z,51.29
2022-08-28T07:06:53.026Z,51.17
2022-08-28T07:07:53.694Z,50.99
2022-08-28T07:08:55.763Z,51.19
2022-08-28T07:09:58.190Z,50.93
2022-08-28T07:11:13.198Z,51.04
2022-08-28T07:12:16.028Z,50.72
2022-08-28T07:13:18.442Z,50.70
2022-08-28T07:14:20.843Z,50.59
2022-08-28T07:15:23.204Z,49.75
2022-08-28T07:16:30.584Z,49.94
2022-08-28T07:17:32.988Z,49.97
2022-08-28T07:18:36.442Z,49.72
2022-08-28T07:19:38.638Z,49.69
2022-08-28T07:20:40.823Z,49.69
2022-08-28T07:21:45.106Z,49.64
2022-08-28T07:22:49.393Z,49.34
2022-08-28T07:23:54.608Z,49.19
2022-08-28T07:24:57.233Z,48.72
2022-08-28T07:26:05.820Z,48.54
2022-08-28T07:27:08.033Z,48.43
2022-08-28T07:28:10.117Z,48.57
2022-08-28T07:29:13.271Z,48.55
2022-08-28T07:30:16.266Z,48.43
2022-08-28T07:31:21.671Z,48.33
2022-08-28T07:32:24.887Z,48.33
2022-08-28T07:33:28.146Z,47.93
2022-08-28T07:34:30.628Z,47.69
2022-08-28T07:35:33.070Z,47.79
2022-08-28T07:36:36.782Z,47.74
2022-08-28T07:37:40.643Z,47.53
2022-08-28T07:38:43.406Z,47.43
2022-08-28T07:39:45.349Z,47.41
2022-08-28T07:40:47.960Z,47.23
2022-08-28T07:41:50.035Z,46.99
2022-08-28T07:42:52.094Z,46.76
2022-08-28T07:43:54.751Z,46.55
2022-08-28T07:44:56.825Z,47.00
2022-08-28T07:46:02.498Z,46.78
2022-08-28T07:47:06.166Z,46.75
2022-08-28T07:48:11.743Z,46.52
2022-08-28T07:49:14.694Z,46.07
2022-08-28T07:50:18.507Z,46.36
2022-08-28T07:51:21.302Z,46.34
2022-08-28T07:52:27.233Z,46.31
2022-08-28T07:53:33.196Z,46.37
2022-08-28T07:54:36.263Z,46.21
2022-08-28T07:55:38.800Z,46.25
2022-08-28T07:56:42.365Z,45.94
2022-08-28T07:57:44.585Z,46.08
2022-08-28T07:58:47.686Z,45.82
2022-08-28T07:59:50.444Z,46.12
2022-08-28T08:00:54.079Z,46.14
2022-08-28T08:01:56.154Z,45.88
2022-08-28T08:02:59.407Z,45.65
2022-08-28T08:04:03.465Z,45.38
2022-08-28T08:05:06.586Z,45.42
2022-08-28T08:06:10.275Z,45.79
2022-08-28T08:07:16.064Z,45.29
2022-08-28T08:08:18.183Z,45.29
2022-08-28T08:09:20.884Z,45.82
2022-08-28T08:10:24.935Z,46.12
2022-08-28T08:11:27.497Z,45.95
2022-08-28T08:12:31.630Z,46.25
2022-08-28T08:13:35.886Z,46.44
2022-08-28T08:14:39.897Z,46.31
2022-08-28T08:15:42.035Z,46.48
2022-08-28T08:16:45.976Z,46.40
2022-08-28T08:17:48.108Z,46.67
2022-08-28T08:18:52.997Z,46.45
2022-08-28T08:19:55.187Z,46.24
2022-08-28T08:20:57.589Z,46.34
2022-08-28T08:22:00.507Z,46.45
2022-08-28T08:23:03.188Z,46.34
2022-08-28T08:24:06.613Z,45.84
2022-08-28T08:25:09.768Z,45.84
2022-08-28T08:26:16.868Z,45.12
2022-08-28T08:27:18.995Z,45.47
2022-08-28T08:28:21.055Z,46.05
2022-08-28T08:29:23.228Z,46.23
2022-08-28T08:30:26.934Z,45.68
2022-08-28T08:31:32.407Z,46.04
2022-08-28T08:32:34.816Z,45.96
2022-08-28T08:33:39.748Z,46.15
2022-08-28T08:34:45.308Z,46.16
2022-08-28T08:35:47.313Z,46.40
2022-08-28T08:36:49.900Z,46.25
2022-08-28T08:37:51.885Z,45.92
2022-08-28T08:38:59.421Z,45.83
2022-08-28T08:40:00.829Z,45.80
2022-08-28T08:41:12.833Z,45.97
2022-08-28T08:42:27.686Z,45.83
2022-08-28T08:43:33.283Z,46.03
2022-08-28T08:44:41.929Z,46.26
2022-08-28T08:45:47.126Z,45.89
2022-08-28T08:47:13.224Z,45.33
2022-08-28T08:48:31.826Z,45.87
2022-08-28T08:49:37.417Z,45.82
2022-08-28T08:50:41.486Z,45.81
2022-08-28T08:51:53.409Z,45.68
2022-08-28T08:53:17.458Z,45.75
2022-08-28T08:54:20.762Z,45.74
2022-08-28T08:55:29.921Z,45.71
2022-08-28T08:56:34.659Z,45.70
2022-08-28T08:57:38.445Z,45.93
2022-08-28T08:58:44.033Z,45.78
2022-08-28T08:59:46.716Z,45.67
2022-08-28T09:01:02.303Z,45.49
2022-08-28T09:02:17.424Z,45.01
2022-08-28T09:03:44.296Z,45.20
2022-08-28T09:04:56.405Z,44.74
2022-08-28T09:06:02.209Z,44.76
2022-08-28T09:07:23.451Z,44.50
2022-08-28T09:08:32.240Z,44.81
2022-08-28T09:09:37.998Z,45.17
2022-08-28T09:10:43.793Z,45.04
2022-08-28T09:12:24.106Z,44.83
2022-08-28T09:13:56.601Z,45.14
2022-08-28T09:15:02.253Z,44.37
2022-08-28T09:16:08.077Z,44.26
2022-08-28T09:17:12.420Z,45.05
2022-08-28T09:18:21.120Z,43.98
2022-08-28T09:19:23.279Z,43.59
2022-08-28T09:20:32.881Z,42.95
2022-08-28T09:21:34.737Z,43.39
2022-08-28T09:22:37.623Z,43.27
2022-08-28T09:23:42.037Z,42.79
2022-08-28T09:24:44.304Z,42.30
2022-08-28T09:25:51.342Z,42.89
2022-08-28T09:26:57.399Z,41.63
2022-08-28T09:28:09.239Z,41.27
2022-08-28T09:29:17.183Z,41.29
2022-08-28T09:30:31.697Z,40.83
2022-08-28T09:31:37.282Z,41.29
2022-08-28T09:32:46.442Z,40.02
2022-08-28T09:33:51.457Z,39.17
2022-08-28T09:35:17.667Z,40.97
2022-08-28T09:36:35.666Z,40.44
2022-08-28T09:37:39.578Z,40.09
2022-08-28T09:38:42.644Z,40.53
2022-08-28T09:39:48.777Z,40.47
2022-08-28T09:40:51.058Z,39.45
2022-08-28T09:41:56.646Z,41.25
2022-08-28T09:43:08.234Z,41.25
2022-08-28T09:44:16.169Z,38.83
2022-08-28T09:45:21.435Z,39.00
2022-08-28T09:46:32.124Z,38.67
2022-08-28T09:47:49.042Z,38.76
2022-08-28T09:48:51.208Z,39.17
2022-08-28T09:49:53.635Z,39.42
2022-08-28T09:51:00.289Z,37.18
2022-08-28T09:52:06.038Z,37.23
2022-08-28T09:53:14.801Z,39.09
2022-08-28T09:54:30.664Z,37.94
2022-08-28T09:55:56.351Z,38.23
2022-08-28T09:57:00.047Z,38.00
2022-08-28T09:58:04.083Z,38.67
2022-08-28T09:59:10.192Z,38.66
2022-08-28T10:00:13.843Z,37.70
2022-08-28T10:01:37.096Z,38.70
2022-08-28T10:02:42.927Z,38.09
2022-08-28T10:03:57.602Z,38.78
2022-08-28T10:05:12.726Z,37.95
2022-08-28T10:06:23.550Z,39.29
2022-08-28T10:07:41.741Z,38.23
2022-08-28T10:09:05.691Z,39.07
2022-08-28T10:10:17.206Z,39.54
2022-08-28T10:11:39.003Z,37.38
2022-08-28T10:12:45.193Z,37.45
2022-08-28T10:15:19.423Z,37.27
2022-08-28T10:16:44.402Z,37.72
2022-08-28T10:17:58.914Z,37.40
2022-08-28T10:19:11.053Z,36.81
2022-08-28T10:20:26.289Z,38.95
2022-08-28T10:21:41.286Z,37.98
2022-08-28T10:23:08.232Z,37.70
2022-08-28T10:24:35.201Z,38.30
2022-08-28T10:25:50.512Z,38.27
2022-08-28T10:27:08.353Z,39.70
2022-08-28T10:28:20.621Z,40.98
2022-08-28T10:31:00.047Z,34.11
2022-08-28T10:32:17.950Z,33.74
2022-08-28T10:33:40.378Z,38.95
2022-08-28T10:35:04.349Z,34.48
2022-08-28T10:36:32.931Z,34.60
2022-08-28T10:37:36.299Z,31.36
2022-08-28T10:38:51.334Z,36.96
2022-08-28T10:39:58.343Z,33.56
2022-08-28T10:41:26.063Z,32.40
2022-08-28T10:42:36.309Z,32.61
2022-08-28T10:43:42.286Z,32.61
2022-08-28T10:44:57.231Z,31.75
2022-08-28T10:46:05.480Z,33.56
2022-08-28T10:47:10.686Z,33.43
2022-08-28T10:48:29.606Z,32.10
2022-08-28T10:49:35.361Z,32.89
2022-08-28T10:50:46.907Z,36.23
2022-08-28T10:51:52.581Z,33.24
2022-08-28T10:53:04.071Z,32.80
2022-08-28T10:54:10.822Z,35.45
2022-08-28T10:55:28.327Z,31.64
2022-08-28T10:56:40.069Z,31.24
2022-08-28T10:57:57.054Z,32.01
2022-08-28T10:58:59.355Z,32.14
2022-08-28T11:00:14.424Z,35.42
2022-08-28T11:01:22.891Z,33.90
2022-08-28T11:02:26.561Z,36.03
2022-08-28T11:03:35.065Z,32.55
2022-08-28T11:04:36.824Z,31.66
2022-08-28T11:07:11.071Z,32.99
2022-08-28T11:08:28.581Z,32.94
2022-08-28T11:09:34.228Z,32.75
2022-08-28T11:10:49.585Z,34.45
2022-08-28T11:12:01.980Z,32.17
2022-08-28T11:13:05.364Z,32.44
2022-08-28T11:14:10.059Z,33.15
2022-08-28T11:15:36.703Z,32.96
2022-08-28T11:16:41.864Z,33.93
2022-08-28T11:17:46.575Z,33.48
2022-08-28T11:19:01.509Z,33.15
2022-08-28T11:20:20.509Z,32.85
2022-08-28T11:21:30.053Z,34.50
2022-08-28T11:22:46.075Z,32.27
2022-08-28T11:23:52.158Z,32.69
2022-08-28T11:25:12.698Z,32.63
2022-08-28T11:26:19.122Z,32.36
2022-08-28T11:27:24.934Z,32.58
2022-08-28T11:28:43.028Z,32.74
2022-08-28T11:30:12.180Z,32.94
2022-08-28T11:31:19.143Z,33.02
2022-08-28T11:32:35.349Z,34.20
2022-08-28T11:33:52.005Z,36.35
2022-08-28T11:34:59.828Z,36.99
2022-08-28T11:36:04.651Z,37.61
2022-08-28T11:37:06.768Z,37.09
2022-08-28T11:38:09.507Z,35.32
2022-08-28T11:39:18.155Z,35.98
2022-08-28T11:40:34.019Z,36.84
2022-08-28T11:41:38.213Z,35.86
2022-08-28T11:42:40.373Z,35.96
2022-08-28T11:43:44.747Z,35.57
2022-08-28T11:44:46.885Z,36.36
2022-08-28T11:46:01.157Z,35.55
2022-08-28T11:47:37.367Z,35.32
2022-08-28T11:48:46.030Z,35.86
2022-08-28T11:49:48.115Z,36.13
2022-08-28T11:50:54.502Z,35.25
2022-08-28T11:52:03.097Z,35.56
2022-08-28T11:54:38.459Z,37.79
2022-08-28T11:55:47.874Z,36.49
2022-08-28T11:57:06.619Z,37.21
2022-08-28T11:58:32.718Z,36.86
2022-08-28T11:59:41.656Z,36.75
2022-08-28T12:01:07.114Z,38.00
2022-08-28T12:02:32.880Z,37.78
2022-08-28T12:04:08.063Z,38.55
2022-08-28T12:05:18.001Z,39.63
2022-08-28T12:06:47.227Z,40.02
2022-08-28T12:07:50.743Z,40.26
2022-08-28T12:08:59.590Z,40.25
2022-08-28T12:10:05.348Z,40.43
2022-08-28T12:11:07.688Z,40.28
2022-08-28T12:12:25.779Z,40.49
2022-08-28T12:13:49.243Z,40.53
2022-08-28T12:15:03.946Z,39.76
2022-08-28T12:16:08.222Z,39.62
2022-08-28T12:17:23.015Z,39.12
2022-08-28T12:18:48.644Z,39.06
2022-08-28T12:21:35.374Z,38.18
2022-08-28T12:22:53.974Z,38.03
2022-08-28T12:25:47.439Z,37.91
2022-08-28T12:26:48.548Z,37.54
2022-08-28T12:27:53.111Z,37.69
2022-08-28T12:29:01.992Z,37.98
2022-08-28T12:30:06.152Z,38.38
2022-08-28T12:31:24.640Z,38.54
2022-08-28T12:32:39.122Z,38.75
2022-08-28T12:33:50.861Z,39.23
2022-08-28T12:35:02.951Z,39.19
2022-08-28T12:36:08.671Z,39.33
2022-08-28T12:37:51.216Z,39.25
2022-08-28T12:38:49.878Z,38.31
2022-08-28T12:39:54.393Z,39.06
2022-08-28T12:40:58.150Z,39.10
2022-08-28T12:42:02.046Z,38.97
2022-08-28T12:43:07.788Z,37.29
2022-08-28T12:44:11.268Z,36.00
2022-08-28T12:45:17.016Z,33.93
2022-08-28T12:46:27.376Z,34.77
2022-08-28T12:47:29.829Z,34.23
2022-08-28T12:48:41.381Z,33.92
2022-08-28T12:49:44.667Z,34.24
2022-08-28T12:51:01.562Z,33.68
2022-08-28T12:52:22.364Z,33.57
2022-08-28T12:53:24.461Z,33.22
2022-08-28T12:54:28.381Z,33.54
2022-08-28T12:55:31.531Z,33.73
2022-08-28T12:56:37.753Z,33.59
2022-08-28T12:57:43.883Z,32.80
2022-08-28T12:58:47.039Z,32.75
2022-08-28T12:59:54.985Z,32.48
2022-08-28T13:01:01.175Z,31.79
2022-08-28T13:03:16.512Z,32.31
2022-08-28T13:04:37.357Z,32.76
2022-08-28T13:05:41.207Z,31.93
2022-08-28T13:06:45.027Z,31.45
2022-08-28T13:07:50.607Z,32.58
2022-08-28T13:09:02.285Z,32.54
2022-08-28T13:10:08.286Z,32.40
2022-08-28T13:11:10.416Z,32.24
2022-08-28T13:12:54.680Z,32.38
2022-08-28T13:13:40.946Z,32.31
2022-08-28T13:14:45.527Z,31.28
2022-08-28T13:16:06.488Z,31.22
2022-08-28T13:17:11.911Z,31.58
2022-08-28T13:18:40.237Z,32.20
2022-08-28T13:19:42.671Z,31.71
2022-08-28T13:20:44.789Z,31.09
2022-08-28T13:21:50.808Z,31.23
2022-08-28T13:22:53.301Z,31.06
2022-08-28T13:23:57.597Z,31.72
2022-08-28T13:25:01.597Z,32.32
2022-08-28T13:26:05.803Z,32.02
2022-08-28T13:27:17.316Z,31.72
2022-08-28T13:28:20.230Z,32.15
2022-08-28T13:29:24.227Z,32.56
2022-08-28T13:30:33.890Z,32.41
2022-08-28T13:31:38.154Z,32.55
2022-08-28T13:32:41.076Z,32.38
2022-08-28T13:33:47.179Z,32.33
2022-08-28T13:35:08.524Z,31.99
2022-08-28T13:36:22.113Z,32.26
2022-08-28T13:37:42.636Z,32.21
2022-08-28T13:38:44.633Z,31.91
2022-08-28T13:39:47.459Z,32.02
2022-08-28T13:40:58.702Z,31.19
2022-08-28T13:42:09.055Z,31.17
2022-08-28T13:43:11.950Z,30.44
2022-08-28T13:44:23.905Z,30.80
2022-08-28T13:45:27.660Z,30.37
2022-08-28T13:46:31.769Z,30.48
2022-08-28T13:47:33.919Z,30.34
2022-08-28T13:48:35.974Z,30.43
2022-08-28T13:49:37.955Z,30.33
2022-08-28T13:50:44.815Z,29.18
2022-08-28T13:51:48.679Z,29.68
2022-08-28T13:52:53.740Z,29.83
2022-08-28T13:53:56.128Z,29.08
2022-08-28T13:55:00.209Z,28.80
2022-08-28T13:56:03.046Z,28.19
2022-08-28T13:57:07.369Z,28.54
2022-08-28T13:58:10.729Z,28.69
2022-08-28T13:59:12.845Z,28.71
2022-08-28T14:00:17.487Z,28.41
2022-08-28T14:01:23.095Z,28.28
2022-08-28T14:02:27.076Z,27.95
2022-08-28T14:03:29.404Z,28.48
2022-08-28T14:04:32.098Z,28.52
2022-08-28T14:05:34.055Z,28.25
2022-08-28T14:06:37.190Z,28.40
2022-08-28T14:07:39.769Z,28.45
2022-08-28T14:08:44.436Z,28.53
2022-08-28T14:09:47.051Z,28.42
2022-08-28T14:10:49.373Z,28.54
2022-08-28T14:11:53.763Z,29.37
2022-08-28T14:12:55.860Z,29.66
2022-08-28T14:13:57.922Z,29.36
2022-08-28T14:15:01.364Z,29.06
2022-08-28T14:16:06.902Z,28.03
2022-08-28T14:17:09.479Z,27.83
2022-08-28T14:18:11.520Z,28.03
2022-08-28T14:19:14.220Z,28.08
2022-08-28T14:20:17.429Z,28.26